^^
Station Historical Data
 
Daily Summary for August 23, 2017 Units:  English    Metric   Both
« Previous Day
Next Day »
Daily Weekly Monthly Yearly Custom
  Current: High: Low: Average:
Temperature: 78.4 °F 101.8 °F 74.3 °F 82.8 °F
Dew Point: 75.2 °F 79.7 °F 72.5 °F 75.3 °F
Humidity: 90% 97% 44% 80%
Wind Speed: 0.0mph 6.3mph 0.0mph 1mph
Wind Gust: 2.7mph 8.3mph - -
WindCalm - - West
Pressure: 29.91 in 30.03 in 29.87 in -
Precipitation: 0.06 in      
Historical Graphs
 
 
Tabular Data for August 23, 2017
Time Temperature Dew Point Pressure Wind Wind Speed Wind Gust Humidity Rainfall Rate (Hourly) solar Conditions
00:04 77.4 °F 73.9 °F 30.03 in Calm   3.5 mph 89% 0.00 in WeatherDisplay:10.37 W/m2 CLR
00:09 77.2 °F 73.7 °F 30.03 in Calm   3.5 mph 89% 0.00 in WeatherDisplay:10.37 W/m2 CLR
00:14 77.2 °F 73.7 °F 30.03 in Calm   3.5 mph 89% 0.00 in WeatherDisplay:10.37 W/m2 CLR
00:19 77.0 °F 73.5 °F 30.03 in Calm   3.5 mph 89% 0.00 in WeatherDisplay:10.37 W/m2 CLR
00:25 77.0 °F 73.8 °F 30.03 in Calm   3.5 mph 90% 0.00 in WeatherDisplay:10.37 W/m2 CLR
00:30 76.6 °F 73.4 °F 30.03 in Calm   3.5 mph 90% 0.00 in WeatherDisplay:10.37 W/m2 CLR
00:35 76.6 °F 73.4 °F 30.03 in Calm   3.5 mph 90% 0.00 in WeatherDisplay:10.37 W/m2 CLR
00:40 76.5 °F 73.3 °F 30.03 in Calm   3.5 mph 90% 0.00 in WeatherDisplay:10.37 W/m2 CLR
00:45 76.5 °F 73.3 °F 30.03 in Calm   3.5 mph 90% 0.00 in WeatherDisplay:10.37 W/m2 CLR
00:50 76.3 °F 73.1 °F 30.03 in Calm   3.5 mph 90% 0.00 in WeatherDisplay:10.37 W/m2 CLR
00:55 76.3 °F 73.5 °F 30.03 in Calm   3.5 mph 91% 0.00 in WeatherDisplay:10.37 W/m2 CLR
01:00 76.3 °F 73.5 °F 30.03 in Calm   3.5 mph 91% 0.00 in WeatherDisplay:10.37 W/m2 CLR
01:05 76.3 °F 73.5 °F 30.03 in Calm   3.5 mph 91% 0.00 in WeatherDisplay:10.37 W/m2 CLR
01:11 76.3 °F 73.5 °F 30.03 in Calm   3.5 mph 91% 0.00 in WeatherDisplay:10.37 W/m2 CLR
01:16 76.3 °F 73.5 °F 30.02 in Calm   3.5 mph 91% 0.00 in WeatherDisplay:10.37 W/m2 CLR
01:21 76.3 °F 73.5 °F 30.02 in Calm   3.5 mph 91% 0.00 in WeatherDisplay:10.37 W/m2 CLR
01:26 76.3 °F 73.5 °F 30.02 in Calm   3.5 mph 91% 0.00 in WeatherDisplay:10.37 W/m2 CLR
01:31 76.3 °F 73.5 °F 30.02 in SW 2.3 mph 3.5 mph 91% 0.00 in WeatherDisplay:10.37 W/m2 CLR
01:36 76.3 °F 73.5 °F 30.02 in WSW 0.5 mph 3.5 mph 91% 0.00 in WeatherDisplay:10.37 W/m2 CLR
01:41 76.5 °F 73.7 °F 30.02 in West 0.9 mph 3.5 mph 91% 0.00 in WeatherDisplay:10.37 W/m2 CLR
01:47 76.5 °F 73.7 °F 30.02 in West 1.0 mph 3.5 mph 91% 0.00 in WeatherDisplay:10.37 W/m2 CLR
01:52 76.5 °F 73.7 °F 30.02 in Calm   3.5 mph 91% 0.00 in WeatherDisplay:10.37 W/m2 CLR
01:57 76.5 °F 73.7 °F 30.02 in Calm   3.5 mph 91% 0.00 in WeatherDisplay:10.37 W/m2 CLR
02:02 76.3 °F 73.5 °F 30.01 in Calm   3.5 mph 91% 0.00 in WeatherDisplay:10.37 W/m2 BKN
02:07 76.3 °F 73.5 °F 30.01 in Calm   3.5 mph 91% 0.00 in WeatherDisplay:10.37 W/m2 BKN
02:12 76.1 °F 73.3 °F 30.01 in WSW 1.2 mph 3.5 mph 91% 0.00 in WeatherDisplay:10.37 W/m2 BKN
02:17 76.1 °F 73.3 °F 30.01 in WSW 0.9 mph 3.5 mph 91% 0.00 in WeatherDisplay:10.37 W/m2 BKN
02:22 76.1 °F 73.6 °F 30.01 in WSW 1.3 mph 3.5 mph 92% 0.00 in WeatherDisplay:10.37 W/m2 BKN
02:28 75.9 °F 73.4 °F 30.01 in WSW 1.4 mph 3.5 mph 92% 0.00 in WeatherDisplay:10.37 W/m2 BKN
02:33 75.9 °F 73.4 °F 30.01 in Calm   3.5 mph 92% 0.00 in WeatherDisplay:10.37 W/m2 BKN
02:38 75.9 °F 73.4 °F 30.01 in Calm   3.5 mph 92% 0.00 in WeatherDisplay:10.37 W/m2 BKN
02:43 75.7 °F 73.2 °F 30.01 in Calm   3.5 mph 92% 0.00 in WeatherDisplay:10.37 W/m2 BKN
02:48 75.7 °F 73.2 °F 30.01 in Calm   3.5 mph 92% 0.00 in WeatherDisplay:10.37 W/m2 BKN
02:53 75.7 °F 73.2 °F 30.00 in Calm   3.5 mph 92% 0.00 in WeatherDisplay:10.37 W/m2 BKN
02:58 75.7 °F 73.2 °F 30.00 in Calm   3.5 mph 92% 0.00 in WeatherDisplay:10.37 W/m2 BKN
03:03 75.7 °F 73.5 °F 29.99 in Calm   3.5 mph 93% 0.00 in WeatherDisplay:10.37 W/m2 BKN
03:09 75.6 °F 73.4 °F 29.99 in Calm   3.5 mph 93% 0.00 in WeatherDisplay:10.37 W/m2 BKN
03:14 75.6 °F 73.4 °F 29.99 in Calm   3.5 mph 93% 0.00 in WeatherDisplay:10.37 W/m2 BKN
03:19 75.6 °F 73.4 °F 29.99 in Calm   3.5 mph 93% 0.00 in WeatherDisplay:10.37 W/m2 BKN
03:24 75.6 °F 73.4 °F 29.99 in Calm   3.5 mph 93% 0.00 in WeatherDisplay:10.37 W/m2 BKN
03:26 75.4 °F 73.2 °F 29.98 in Calm   3.5 mph 93% 0.00 in WeatherDisplay:10.37 W/m2 BKN
03:31 75.4 °F 73.2 °F 29.98 in Calm   3.5 mph 93% 0.00 in WeatherDisplay:10.37 W/m2 BKN
03:36 75.2 °F 73.0 °F 29.98 in Calm   3.5 mph 93% 0.00 in WeatherDisplay:10.37 W/m2 SCT
03:41 75.2 °F 73.0 °F 29.99 in Calm   3.5 mph 93% 0.00 in WeatherDisplay:10.37 W/m2 SCT
03:47 75.2 °F 73.4 °F 29.99 in Calm   3.5 mph 94% 0.00 in WeatherDisplay:10.37 W/m2 SCT
03:52 75.2 °F 73.4 °F 29.99 in Calm   3.5 mph 94% 0.00 in WeatherDisplay:10.37 W/m2 SCT
03:53 75.2 °F 73.4 °F 29.99 in Calm   3.5 mph 94% 0.00 in WeatherDisplay:10.37 W/m2 SCT
03:58 75.2 °F 73.4 °F 29.99 in Calm   3.5 mph 94% 0.00 in WeatherDisplay:10.37 W/m2 SCT
04:03 75.2 °F 73.4 °F 29.98 in Calm   3.5 mph 94% 0.00 in WeatherDisplay:10.37 W/m2 CLR
04:08 75.2 °F 73.4 °F 29.98 in Calm   3.5 mph 94% 0.00 in WeatherDisplay:10.37 W/m2 CLR
04:13 75.0 °F 73.2 °F 29.98 in Calm   3.5 mph 94% 0.00 in WeatherDisplay:10.37 W/m2 CLR
04:18 74.8 °F 73.0 °F 29.99 in Calm   3.5 mph 94% 0.00 in WeatherDisplay:10.37 W/m2 CLR
04:23 74.7 °F 72.9 °F 29.99 in Calm   3.5 mph 94% 0.00 in WeatherDisplay:10.37 W/m2 CLR
04:28 74.7 °F 72.9 °F 29.98 in Calm   3.5 mph 94% 0.00 in WeatherDisplay:10.37 W/m2 CLR
04:34 74.5 °F 72.7 °F 29.98 in Calm   3.5 mph 94% 0.00 in WeatherDisplay:10.37 W/m2 CLR
04:39 74.5 °F 72.7 °F 29.99 in Calm   3.5 mph 94% 0.00 in WeatherDisplay:10.37 W/m2 CLR
04:44 74.3 °F 72.5 °F 29.99 in Calm   3.5 mph 94% 0.00 in WeatherDisplay:10.37 W/m2 CLR
04:49 74.3 °F 72.8 °F 29.99 in Calm   3.5 mph 95% 0.00 in WeatherDisplay:10.37 W/m2 CLR
04:54 74.5 °F 73.0 °F 29.99 in Calm   3.5 mph 95% 0.00 in WeatherDisplay:10.37 W/m2 CLR
04:59 74.3 °F 72.8 °F 29.99 in Calm   3.5 mph 95% 0.00 in WeatherDisplay:10.37 W/m2 CLR
05:04 74.3 °F 73.1 °F 29.98 in Calm   3.5 mph 96% 0.00 in WeatherDisplay:10.37 W/m2 CLR
05:10 74.7 °F 73.5 °F 29.98 in Calm   3.5 mph 96% 0.00 in WeatherDisplay:10.37 W/m2 CLR
05:15 74.7 °F 73.5 °F 29.99 in Calm   3.5 mph 96% 0.00 in WeatherDisplay:10.37 W/m2 CLR
05:20 74.7 °F 73.5 °F 29.99 in Calm   3.5 mph 96% 0.00 in WeatherDisplay:10.37 W/m2 CLR
05:25 74.7 °F 73.5 °F 29.99 in Calm   3.5 mph 96% 0.00 in WeatherDisplay:10.37 W/m2 CLR
05:30 74.7 °F 73.5 °F 29.99 in Calm   3.5 mph 96% 0.00 in WeatherDisplay:10.37 W/m2 CLR
05:35 74.7 °F 73.5 °F 29.99 in Calm   3.5 mph 96% 0.00 in WeatherDisplay:10.37 W/m2 CLR
05:40 74.7 °F 73.5 °F 29.99 in Calm   3.5 mph 96% 0.00 in WeatherDisplay:10.37 W/m2 CLR
05:45 74.7 °F 73.5 °F 29.99 in Calm   3.5 mph 96% 0.00 in WeatherDisplay:10.37 W/m2 CLR
05:51 74.7 °F 73.5 °F 30.00 in Calm   3.5 mph 96% 0.00 in WeatherDisplay:10.37 W/m2 CLR
05:56 74.7 °F 73.5 °F 30.00 in Calm   3.5 mph 96% 0.00 in WeatherDisplay:10.37 W/m2 CLR
06:01 74.7 °F 73.5 °F 30.00 in Calm   3.5 mph 96% 0.00 in WeatherDisplay:10.37 W/m2 CLR
06:06 74.7 °F 73.5 °F 29.99 in Calm   3.5 mph 96% 0.00 in WeatherDisplay:10.37 W/m2 CLR
06:11 74.5 °F 73.3 °F 29.99 in Calm   3.5 mph 96% 0.00 in WeatherDisplay:10.37 W/m2 CLR
06:16 74.5 °F 73.3 °F 30.00 in Calm   3.5 mph 96% 0.00 in WeatherDisplay:10.37 W/m2 CLR
06:21 74.5 °F 73.3 °F 30.00 in Calm   3.5 mph 96% 0.00 in WeatherDisplay:10.37 W/m2 CLR
06:27 74.7 °F 73.8 °F 30.00 in Calm   3.5 mph 97% 0.00 in WeatherDisplay:10.37 W/m2 CLR
06:32 74.7 °F 73.8 °F 30.00 in Calm   3.5 mph 97% 0.00 in WeatherDisplay:10.37 W/m2 CLR
06:37 74.7 °F 73.8 °F 30.00 in Calm   3.5 mph 97% 0.00 in WeatherDisplay:10.37 W/m2 CLR
06:42 74.7 °F 73.8 °F 30.01 in Calm   3.5 mph 97% 0.00 in WeatherDisplay:10.37 W/m2 CLR
06:47 74.7 °F 73.8 °F 30.01 in Calm   3.5 mph 97% 0.00 in WeatherDisplay:10.37 W/m2 CLR
06:52 74.8 °F 73.9 °F 30.01 in Calm   3.5 mph 97% 0.00 in WeatherDisplay:10.37 W/m2 CLR
06:57 75.0 °F 73.8 °F 30.01 in WNW 0.1 mph 3.5 mph 96% 0.00 in WeatherDisplay:10.37 W/m2 CLR
07:03 75.2 °F 74.0 °F 30.01 in West 0.8 mph 3.5 mph 96% 0.00 in WeatherDisplay:10.37 W/m2 CLR
07:08 75.2 °F 74.0 °F 30.01 in Calm   3.5 mph 96% 0.00 in WeatherDisplay:10.37 W/m2 CLR
07:13 75.6 °F 74.1 °F 30.01 in Calm   3.5 mph 95% 0.00 in WeatherDisplay:10.37 W/m2 CLR
07:18 75.7 °F 74.2 °F 30.00 in Calm   3.5 mph 95% 0.00 in WeatherDisplay:10.37 W/m2 CLR
07:23 75.9 °F 74.4 °F 30.00 in Calm   3.5 mph 95% 0.00 in WeatherDisplay:10.37 W/m2 CLR
07:33 76.5 °F 74.3 °F 30.00 in Calm   3.5 mph 93% 0.00 in WeatherDisplay:10.37 W/m2 CLR
07:38 76.8 °F 74.3 °F 30.00 in WSW 1.7 mph 3.5 mph 92% 0.00 in WeatherDisplay:10.37 W/m2 CLR
07:44 77.2 °F 74.7 °F 30.00 in WNW 2.0 mph 3.5 mph 92% 0.00 in WeatherDisplay:10.37 W/m2 CLR
07:49 77.5 °F 74.3 °F 30.00 in WNW 3.0 mph 4.7 mph 90% 0.00 in WeatherDisplay:10.37 W/m2 CLR
07:54 77.9 °F 74.7 °F 30.00 in WNW 2.9 mph 4.7 mph 90% 0.00 in WeatherDisplay:10.37 W/m2 CLR
07:59 78.3 °F 74.8 °F 30.00 in West 2.2 mph 4.7 mph 89% 0.00 in WeatherDisplay:10.37 W/m2 CLR
08:04 78.6 °F 75.1 °F 30.00 in West 2.8 mph 4.7 mph 89% 0.00 in WeatherDisplay:10.37 W/m2 CLR
08:09 78.8 °F 74.9 °F 30.00 in West 2.7 mph 4.7 mph 88% 0.00 in WeatherDisplay:10.37 W/m2 CLR
08:14 79.2 °F 75.0 °F 30.00 in WNW 2.2 mph 4.7 mph 87% 0.00 in WeatherDisplay:10.37 W/m2 CLR
08:19 79.5 °F 75.3 °F 30.00 in Calm   4.7 mph 87% 0.00 in WeatherDisplay:10.37 W/m2 CLR
08:25 79.9 °F 75.0 °F 30.00 in WNW 3.2 mph 4.7 mph 85% 0.00 in WeatherDisplay:10.37 W/m2 CLR
08:30 80.4 °F 75.5 °F 30.00 in WNW 2.2 mph 4.7 mph 85% 0.00 in WeatherDisplay:10.37 W/m2 CLR
08:35 80.6 °F 75.3 °F 30.00 in WNW 2.9 mph 4.7 mph 84% 0.00 in WeatherDisplay:10.37 W/m2 CLR
08:40 81.0 °F 75.3 °F 30.00 in NW 2.7 mph 4.7 mph 83% 0.00 in WeatherDisplay:10.37 W/m2 CLR
08:45 81.5 °F 75.5 °F 30.00 in NW 1.8 mph 4.7 mph 82% 0.00 in WeatherDisplay:10.37 W/m2 CLR
08:50 82.0 °F 75.6 °F 30.00 in WNW 1.9 mph 5.8 mph 81% 0.00 in WeatherDisplay:10.37 W/m2 CLR
08:55 82.4 °F 76.0 °F 30.00 in WNW 2.6 mph 5.8 mph 81% 0.00 in WeatherDisplay:10.37 W/m2 CLR
09:00 82.6 °F 75.4 °F 30.00 in NW 2.8 mph 5.8 mph 79% 0.00 in WeatherDisplay:10.37 W/m2 CLR
09:06 82.6 °F 75.4 °F 30.00 in NW 4.6 mph 5.8 mph 79% 0.00 in WeatherDisplay:10.37 W/m2 CLR
09:11 82.9 °F 75.7 °F 30.00 in WNW 1.7 mph 5.8 mph 79% 0.00 in WeatherDisplay:10.37 W/m2 CLR
09:16 83.3 °F 75.7 °F 30.00 in WNW 2.8 mph 5.8 mph 78% 0.00 in WeatherDisplay:10.37 W/m2 CLR
09:21 83.3 °F 75.3 °F 30.00 in WNW 3.8 mph 5.8 mph 77% 0.00 in WeatherDisplay:10.37 W/m2 CLR
09:26 83.8 °F 75.8 °F 30.00 in Calm   5.8 mph 77% 0.00 in WeatherDisplay:10.37 W/m2 CLR
09:31 84.0 °F 76.0 °F 30.00 in NNW 1.8 mph 5.8 mph 77% 0.00 in WeatherDisplay:10.37 W/m2 CLR
09:36 84.2 °F 76.2 °F 30.00 in NW 2.1 mph 5.8 mph 77% 0.00 in WeatherDisplay:10.37 W/m2 CLR
09:42 84.6 °F 76.2 °F 30.00 in West 3.0 mph 5.8 mph 76% 0.00 in WeatherDisplay:10.37 W/m2 CLR
09:47 85.1 °F 76.7 °F 30.00 in WNW 2.1 mph 5.8 mph 76% 0.00 in WeatherDisplay:10.37 W/m2 CLR
09:52 85.1 °F 76.3 °F 30.00 in West 3.5 mph 5.8 mph 75% 0.00 in WeatherDisplay:10.37 W/m2 CLR
09:57 85.3 °F 76.5 °F 30.00 in West 1.8 mph 5.8 mph 75% 0.00 in WeatherDisplay:10.37 W/m2 CLR
10:02 85.5 °F 76.7 °F 30.00 in WNW 2.0 mph 5.8 mph 75% 0.00 in WeatherDisplay:10.37 W/m2 CLR
10:07 85.6 °F 76.4 °F 30.00 in WNW 3.0 mph 5.8 mph 74% 0.00 in WeatherDisplay:10.37 W/m2 CLR
10:12 86.0 °F 76.3 °F 30.00 in NW 1.3 mph 5.8 mph 73% 0.00 in WeatherDisplay:10.37 W/m2 CLR
10:17 87.1 °F 77.8 °F 30.00 in Calm   5.8 mph 74% 0.00 in WeatherDisplay:10.37 W/m2 CLR
10:23 87.3 °F 77.2 °F 30.00 in West 1.0 mph 6.3 mph 72% 0.00 in WeatherDisplay:10.37 W/m2 CLR
10:28 87.8 °F 76.4 °F 30.00 in NW 1.1 mph 6.3 mph 69% 0.00 in WeatherDisplay:10.37 W/m2 CLR
10:33 87.6 °F 76.2 °F 30.00 in North 4.4 mph 6.3 mph 69% 0.00 in WeatherDisplay:10.37 W/m2 CLR
10:38 88.0 °F 76.5 °F 30.00 in NW 2.7 mph 6.9 mph 69% 0.00 in WeatherDisplay:10.37 W/m2 CLR
10:43 88.5 °F 76.6 °F 30.00 in WNW 3.4 mph 6.9 mph 68% 0.00 in WeatherDisplay:10.37 W/m2 CLR
10:48 89.2 °F 76.8 °F 30.00 in WNW 3.5 mph 6.9 mph 67% 0.00 in WeatherDisplay:10.37 W/m2 CLR
10:53 89.4 °F 76.5 °F 30.00 in WNW 1.2 mph 6.9 mph 66% 0.00 in WeatherDisplay:10.37 W/m2 CLR
10:58 89.8 °F 76.9 °F 30.00 in WNW 2.3 mph 6.9 mph 66% 0.00 in WeatherDisplay:10.37 W/m2 CLR
11:04 90.3 °F 76.5 °F 30.00 in West 3.5 mph 6.9 mph 64% 0.00 in WeatherDisplay:10.37 W/m2 FEW
11:09 90.5 °F 76.7 °F 30.00 in West 2.2 mph 6.9 mph 64% 0.00 in WeatherDisplay:10.37 W/m2 FEW
11:14 91.2 °F 77.3 °F 29.99 in WNW 2.6 mph 6.9 mph 64% 0.00 in WeatherDisplay:10.37 W/m2 FEW
11:24 91.9 °F 77.5 °F 29.99 in NW 1.7 mph 6.9 mph 63% 0.00 in WeatherDisplay:10.37 W/m2 FEW
11:29 91.9 °F 76.0 °F 29.99 in NNW 4.4 mph 6.9 mph 60% 0.00 in WeatherDisplay:10.37 W/m2 FEW
11:34 91.9 °F 77.5 °F 29.99 in NW 2.6 mph 6.9 mph 63% 0.00 in WeatherDisplay:10.37 W/m2 FEW
11:39 93.6 °F 78.6 °F 29.98 in NW 0.1 mph 6.9 mph 62% 0.00 in WeatherDisplay:10.37 W/m2 FEW
11:45 91.6 °F 77.7 °F 29.98 in East 2.3 mph 6.9 mph 64% 0.00 in WeatherDisplay:10.37 W/m2 FEW
11:50 91.8 °F 76.4 °F 29.98 in NW 3.5 mph 6.9 mph 61% 0.00 in WeatherDisplay:10.37 W/m2 FEW
11:55 91.6 °F 76.2 °F 29.98 in West 2.3 mph 6.9 mph 61% 0.00 in WeatherDisplay:10.37 W/m2 FEW
12:00 90.7 °F 74.9 °F 29.98 in West 3.5 mph 6.9 mph 60% 0.00 in WeatherDisplay:10.37 W/m2 FEW
12:05 92.3 °F 74.3 °F 29.97 in West 2.7 mph 6.9 mph 56% 0.00 in WeatherDisplay:10.37 W/m2 SCT
12:10 92.8 °F 75.3 °F 29.97 in WSW 1.6 mph 6.9 mph 57% 0.00 in WeatherDisplay:10.37 W/m2 SCT
12:15 93.7 °F 74.0 °F 29.97 in West 2.6 mph 6.9 mph 53% 0.00 in WeatherDisplay:10.37 W/m2 SCT
12:21 92.8 °F 76.4 °F 29.97 in WNW 3.1 mph 6.9 mph 59% 0.00 in WeatherDisplay:10.37 W/m2 SCT
12:26 94.8 °F 74.4 °F 29.97 in WNW 2.9 mph 6.9 mph 52% 0.00 in WeatherDisplay:10.37 W/m2 SCT
12:31 93.9 °F 74.7 °F 29.97 in NW 2.1 mph 6.9 mph 54% 0.00 in WeatherDisplay:10.37 W/m2 SCT
12:36 95.9 °F 74.9 °F 29.97 in NNW 1.8 mph 6.9 mph 51% 0.00 in WeatherDisplay:10.37 W/m2 SCT
12:41 97.0 °F 76.5 °F 29.97 in NW 3.2 mph 6.9 mph 52% 0.00 in WeatherDisplay:10.37 W/m2 SCT
12:46 95.5 °F 76.2 °F 29.97 in WNW 1.9 mph 6.9 mph 54% 0.00 in WeatherDisplay:10.37 W/m2 FEW
12:51 98.6 °F 76.7 °F 29.96 in NNW 2.1 mph 6.9 mph 50% 0.00 in WeatherDisplay:10.37 W/m2 FEW
12:56 97.3 °F 76.7 °F 29.96 in WSW 0.4 mph 6.9 mph 52% 0.00 in WeatherDisplay:10.37 W/m2 FEW
13:02 97.2 °F 75.5 °F 29.96 in SSW 0.6 mph 6.9 mph 50% 0.00 in WeatherDisplay:10.37 W/m2 FEW
13:07 94.3 °F 76.2 °F 29.96 in SSW 2.2 mph 6.9 mph 56% 0.00 in WeatherDisplay:10.37 W/m2 FEW
13:12 95.9 °F 76.0 °F 29.96 in NW 3.8 mph 6.9 mph 53% 0.00 in WeatherDisplay:10.37 W/m2 FEW
13:17 95.4 °F 76.1 °F 29.95 in NW 2.6 mph 6.9 mph 54% 0.00 in WeatherDisplay:10.37 W/m2 FEW
13:22 93.2 °F 74.6 °F 29.95 in WNW 3.4 mph 6.9 mph 55% 0.00 in WeatherDisplay:10.37 W/m2 FEW
13:27 94.3 °F 75.6 °F 29.95 in ESE 3.8 mph 6.9 mph 55% 0.00 in WeatherDisplay:10.37 W/m2 FEW
13:33 97.2 °F 74.2 °F 29.95 in NNW 3.2 mph 6.9 mph 48% 0.00 in WeatherDisplay:10.37 W/m2 FEW
13:38 93.9 °F 74.7 °F 29.94 in WNW 2.3 mph 6.9 mph 54% 0.00 in WeatherDisplay:10.37 W/m2 FEW
13:43 97.5 °F 75.1 °F 29.94 in WSW 3.0 mph 6.9 mph 49% 0.00 in WeatherDisplay:10.37 W/m2 FEW
13:48 98.1 °F 76.9 °F 29.94 in WNW 2.6 mph 6.9 mph 51% 0.00 in WeatherDisplay:10.37 W/m2 FEW
13:53 98.4 °F 74.7 °F 29.93 in WNW 1.6 mph 6.9 mph 47% 0.00 in WeatherDisplay:10.37 W/m2 FEW
13:58 99.5 °F 75.1 °F 29.93 in NW 3.7 mph 6.9 mph 46% 0.00 in WeatherDisplay:10.37 W/m2 FEW
14:03 98.1 °F 74.4 °F 29.93 in WNW 2.8 mph 6.9 mph 47% 0.00 in WeatherDisplay:10.37 W/m2 FEW
14:08 99.0 °F 75.9 °F 29.93 in WSW 2.5 mph 6.9 mph 48% 0.00 in WeatherDisplay:10.37 W/m2 FEW
14:14 99.1 °F 75.3 °F 29.92 in SSW 1.0 mph 6.9 mph 47% 0.00 in WeatherDisplay:10.37 W/m2 FEW
14:19 99.7 °F 74.6 °F 29.92 in WNW 2.1 mph 6.9 mph 45% 0.00 in WeatherDisplay:10.37 W/m2 FEW
14:24 96.6 °F 74.9 °F 29.92 in NNE 0.6 mph 6.9 mph 50% 0.00 in WeatherDisplay:10.37 W/m2 FEW
14:29 97.2 °F 77.2 °F 29.91 in East 2.8 mph 6.9 mph 53% 0.00 in WeatherDisplay:10.37 W/m2 FEW
14:34 99.0 °F 75.9 °F 29.91 in NNW 2.6 mph 6.9 mph 48% 0.00 in WeatherDisplay:10.37 W/m2 FEW
14:39 99.9 °F 74.8 °F 29.91 in West 2.6 mph 6.9 mph 45% 0.00 in WeatherDisplay:10.37 W/m2 FEW
14:44 100.2 °F 75.7 °F 29.91 in West 1.9 mph 6.9 mph 46% 0.00 in WeatherDisplay:10.37 W/m2 FEW
14:50 101.8 °F 76.5 °F 29.90 in WNW 2.3 mph 6.9 mph 45% 0.00 in WeatherDisplay:10.37 W/m2 FEW
14:55 100.4 °F 74.5 °F 29.90 in NW 1.4 mph 6.9 mph 44% 0.00 in WeatherDisplay:10.37 W/m2 FEW
15:00 101.1 °F 75.2 °F 29.90 in NW 3.0 mph 6.9 mph 44% 0.00 in WeatherDisplay:10.37 W/m2 FEW
15:05 100.6 °F 75.4 °F 29.90 in WNW 2.2 mph 6.9 mph 45% 0.00 in WeatherDisplay:10.37 W/m2 CLR
15:10 99.0 °F 76.5 °F 29.90 in NW 2.3 mph 6.9 mph 49% 0.00 in WeatherDisplay:10.37 W/m2 CLR
15:15 100.9 °F 77.0 °F 29.89 in NNW 0.3 mph 6.9 mph 47% 0.00 in WeatherDisplay:10.37 W/m2 CLR
15:20 99.0 °F 77.7 °F 29.89 in NE 0.8 mph 6.9 mph 51% 0.00 in WeatherDisplay:10.37 W/m2 CLR
15:26 97.9 °F 76.7 °F 29.89 in Calm   6.9 mph 51% 0.00 in WeatherDisplay:10.37 W/m2 CLR
15:31 93.4 °F 75.9 °F 29.90 in WNW 5.3 mph 6.9 mph 57% 0.00 in WeatherDisplay:10.37 W/m2 CLR
15:36 88.2 °F 79.7 °F 29.90 in WNW 6.3 mph 8.3 mph 76% 0.00 in WeatherDisplay:10.37 W/m2 CLR
15:41 83.8 °F 77.7 °F 29.90 in WNW 3.6 mph 8.3 mph 82% 0.06 in WeatherDisplay:10.37 W/m2 RA
15:46 82.6 °F 77.3 °F 29.90 in NW 3.6 mph 8.3 mph 84% 0.06 in WeatherDisplay:10.37 W/m2 RA
15:51 82.6 °F 77.6 °F 29.90 in NW 2.0 mph 8.3 mph 85% 0.06 in WeatherDisplay:10.37 W/m2 -DZ
15:56 82.6 °F 77.3 °F 29.90 in WNW 1.5 mph 8.3 mph 84% 0.06 in WeatherDisplay:10.37 W/m2 -DZ
16:01 82.9 °F 77.9 °F 29.89 in WSW 0.7 mph 8.3 mph 85% 0.06 in WeatherDisplay:10.37 W/m2 +RA
16:07 83.7 °F 78.3 °F 29.89 in Calm   8.3 mph 84% 0.06 in WeatherDisplay:10.37 W/m2 +RA
16:12 83.5 °F 77.4 °F 29.89 in West 1.9 mph 8.3 mph 82% 0.06 in WeatherDisplay:10.37 W/m2 +RA
16:17 83.8 °F 78.4 °F 29.89 in Calm   8.3 mph 84% 0.06 in WeatherDisplay:10.37 W/m2 +RA
16:22 84.9 °F 79.2 °F 29.89 in Calm   8.3 mph 83% 0.06 in WeatherDisplay:10.37 W/m2 +RA
16:27 84.9 °F 79.2 °F 29.88 in North 2.4 mph 8.3 mph 83% 0.06 in WeatherDisplay:10.37 W/m2 +RA
16:32 84.7 °F 79.0 °F 29.88 in NW 3.5 mph 8.3 mph 83% 0.06 in WeatherDisplay:10.37 W/m2 +RA
16:37 84.7 °F 78.2 °F 29.88 in Calm   8.3 mph 81% 0.02 in WeatherDisplay:10.37 W/m2 BKN
16:42 85.1 °F 78.6 °F 29.88 in West 0.9 mph 8.3 mph 81% 0.00 in WeatherDisplay:10.37 W/m2 BKN
16:48 85.1 °F 78.2 °F 29.88 in Calm   8.3 mph 80% 0.00 in WeatherDisplay:10.37 W/m2 FEW
16:53 85.3 °F 78.0 °F 29.88 in West 2.6 mph 8.3 mph 79% 0.00 in WeatherDisplay:10.37 W/m2 FEW
16:58 85.8 °F 78.9 °F 29.88 in Calm   8.3 mph 80% 0.00 in WeatherDisplay:10.37 W/m2 FEW
17:03 86.2 °F 78.1 °F 29.88 in Calm   8.3 mph 77% 0.00 in WeatherDisplay:10.37 W/m2 FEW
17:08 86.2 °F 78.1 °F 29.88 in Calm   8.3 mph 77% 0.00 in WeatherDisplay:10.37 W/m2 FEW
17:13 86.5 °F 78.8 °F 29.87 in Calm   8.3 mph 78% 0.00 in WeatherDisplay:10.37 W/m2 FEW
17:19 86.7 °F 78.2 °F 29.87 in Calm   8.3 mph 76% 0.00 in WeatherDisplay:10.37 W/m2 FEW
17:24 86.5 °F 78.0 °F 29.87 in Calm   8.3 mph 76% 0.00 in WeatherDisplay:10.37 W/m2 FEW
17:29 86.4 °F 78.3 °F 29.87 in Calm   8.3 mph 77% 0.00 in WeatherDisplay:10.37 W/m2 FEW
17:34 86.4 °F 78.3 °F 29.87 in Calm   8.3 mph 77% 0.00 in WeatherDisplay:10.37 W/m2 FEW
17:39 86.4 °F 78.7 °F 29.87 in Calm   8.3 mph 78% 0.00 in WeatherDisplay:10.37 W/m2 FEW
17:44 85.8 °F 78.1 °F 29.87 in Calm   8.3 mph 78% 0.00 in WeatherDisplay:10.37 W/m2 FEW
17:49 85.8 °F 77.4 °F 29.87 in Calm   8.3 mph 76% 0.00 in WeatherDisplay:10.37 W/m2 FEW
17:54 85.6 °F 76.8 °F 29.87 in Calm   8.3 mph 75% 0.00 in WeatherDisplay:10.37 W/m2 FEW
18:00 85.6 °F 77.2 °F 29.87 in Calm   8.3 mph 76% 0.00 in WeatherDisplay:10.37 W/m2 FEW
18:05 85.6 °F 76.8 °F 29.87 in Calm   8.3 mph 75% 0.00 in WeatherDisplay:10.37 W/m2 CLR
18:10 85.6 °F 77.2 °F 29.87 in Calm   8.3 mph 76% 0.00 in WeatherDisplay:10.37 W/m2 CLR
18:15 85.3 °F 76.9 °F 29.87 in Calm   8.3 mph 76% 0.00 in WeatherDisplay:10.37 W/m2 CLR
18:20 85.1 °F 76.7 °F 29.87 in Calm   8.3 mph 76% 0.00 in WeatherDisplay:10.37 W/m2 CLR
18:25 84.7 °F 77.1 °F 29.87 in Calm   8.3 mph 78% 0.00 in WeatherDisplay:10.37 W/m2 CLR
18:30 83.7 °F 77.2 °F 29.87 in South 4.4 mph 8.3 mph 81% 0.00 in WeatherDisplay:10.37 W/m2 CLR
18:35 83.3 °F 78.0 °F 29.87 in SE 0.8 mph 8.3 mph 84% 0.00 in WeatherDisplay:10.37 W/m2 CLR
18:41 82.6 °F 77.3 °F 29.87 in Calm   8.3 mph 84% 0.00 in WeatherDisplay:10.37 W/m2 CLR
18:46 82.6 °F 77.3 °F 29.87 in SSE 1.3 mph 8.3 mph 84% 0.00 in WeatherDisplay:10.37 W/m2 CLR
18:51 82.6 °F 76.9 °F 29.87 in Calm   8.3 mph 83% 0.00 in WeatherDisplay:10.37 W/m2 CLR
18:56 82.8 °F 77.1 °F 29.87 in Calm   8.3 mph 83% 0.00 in WeatherDisplay:10.37 W/m2 CLR
19:01 82.6 °F 76.9 °F 29.88 in Calm   8.3 mph 83% 0.00 in WeatherDisplay:10.37 W/m2 CLR
19:06 82.4 °F 76.3 °F 29.88 in Calm   8.3 mph 82% 0.00 in WeatherDisplay:10.37 W/m2 CLR
19:11 82.4 °F 76.3 °F 29.88 in Calm   8.3 mph 82% 0.00 in WeatherDisplay:10.37 W/m2 CLR
19:16 82.2 °F 76.2 °F 29.88 in Calm   8.3 mph 82% 0.00 in WeatherDisplay:10.37 W/m2 CLR
19:22 82.0 °F 76.0 °F 29.88 in Calm   8.3 mph 82% 0.00 in WeatherDisplay:10.37 W/m2 CLR
19:27 81.9 °F 75.9 °F 29.89 in Calm   8.3 mph 82% 0.00 in WeatherDisplay:10.37 W/m2 CLR
19:32 81.7 °F 76.0 °F 29.89 in Calm   8.3 mph 83% 0.00 in WeatherDisplay:10.37 W/m2 CLR
19:37 81.7 °F 76.0 °F 29.89 in Calm   8.3 mph 83% 0.00 in WeatherDisplay:10.37 W/m2 CLR
19:42 81.5 °F 75.8 °F 29.89 in Calm   8.3 mph 83% 0.00 in WeatherDisplay:10.37 W/m2 CLR
19:47 81.3 °F 75.6 °F 29.89 in Calm   8.3 mph 83% 0.00 in WeatherDisplay:10.37 W/m2 CLR
19:52 81.1 °F 75.4 °F 29.89 in Calm   8.3 mph 83% 0.00 in WeatherDisplay:10.37 W/m2 CLR
19:57 81.1 °F 75.8 °F 29.89 in Calm   8.3 mph 84% 0.00 in WeatherDisplay:10.37 W/m2 CLR
20:03 81.0 °F 75.7 °F 29.89 in SSW 1.2 mph 8.3 mph 84% 0.00 in WeatherDisplay:10.37 W/m2 CLR
20:08 81.1 °F 76.2 °F 29.89 in WNW 0.8 mph 8.3 mph 85% 0.00 in WeatherDisplay:10.37 W/m2 CLR
20:13 81.1 °F 75.8 °F 29.89 in NW 2.1 mph 8.3 mph 84% 0.00 in WeatherDisplay:10.37 W/m2 CLR
20:18 81.1 °F 75.4 °F 29.90 in WSW 0.7 mph 8.3 mph 83% 0.00 in WeatherDisplay:10.37 W/m2 CLR
20:28 81.0 °F 75.3 °F 29.90 in Calm   8.3 mph 83% 0.00 in WeatherDisplay:10.37 W/m2 CLR
20:33 81.1 °F 75.4 °F 29.90 in West 2.0 mph 8.3 mph 83% 0.00 in WeatherDisplay:10.37 W/m2 CLR
20:38 81.1 °F 75.4 °F 29.90 in West 1.7 mph 8.3 mph 83% 0.00 in WeatherDisplay:10.37 W/m2 CLR
20:43 81.1 °F 75.8 °F 29.90 in WSW 1.5 mph 8.3 mph 84% 0.00 in WeatherDisplay:10.37 W/m2 CLR
20:49 81.0 °F 75.7 °F 29.90 in Calm   8.3 mph 84% 0.00 in WeatherDisplay:10.37 W/m2 CLR
20:54 80.8 °F 75.5 °F 29.90 in Calm   8.3 mph 84% 0.00 in WeatherDisplay:10.37 W/m2 CLR
20:59 80.8 °F 75.9 °F 29.90 in Calm   8.3 mph 85% 0.00 in WeatherDisplay:10.37 W/m2 CLR
21:04 80.6 °F 75.7 °F 29.91 in Calm     85% 0.00 in WeatherDisplay:10.37 W/m2 SCT
21:09 80.6 °F 75.7 °F 29.91 in Calm     85% 0.00 in WeatherDisplay:10.37 W/m2 RA
21:14 80.6 °F 75.7 °F 29.91 in Calm     85% 0.00 in WeatherDisplay:10.37 W/m2 RA
21:20 80.6 °F 76.4 °F 29.91 in Calm     87% 0.00 in WeatherDisplay:10.37 W/m2 SCT
21:25 80.2 °F 76.0 °F 29.90 in Calm     87% 0.00 in WeatherDisplay:10.37 W/m2 SCT
21:30 80.2 °F 75.6 °F 29.90 in Calm     86% 0.00 in WeatherDisplay:10.37 W/m2 SCT
21:35 80.1 °F 75.5 °F 29.90 in Calm     86% 0.00 in WeatherDisplay:10.37 W/m2 SCT
21:40 79.9 °F 75.3 °F 29.91 in Calm     86% 0.00 in WeatherDisplay:10.37 W/m2 SCT
21:45 79.7 °F 75.5 °F 29.91 in Calm     87% 0.00 in WeatherDisplay:10.37 W/m2 SCT
21:50 79.7 °F 75.5 °F 29.91 in Calm     87% 0.00 in WeatherDisplay:10.37 W/m2 SCT
21:55 79.7 °F 75.8 °F 29.91 in Calm     88% 0.00 in WeatherDisplay:10.37 W/m2 SCT
22:01 79.7 °F 75.8 °F 29.91 in Calm     88% 0.00 in WeatherDisplay:10.37 W/m2 SCT
22:06 79.7 °F 75.5 °F 29.92 in Calm     87% 0.00 in WeatherDisplay:10.37 W/m2 BKN
22:11 79.7 °F 75.5 °F 29.92 in Calm     87% 0.00 in WeatherDisplay:10.37 W/m2 BKN
22:16 79.7 °F 75.5 °F 29.91 in Calm     87% 0.00 in WeatherDisplay:10.37 W/m2 BKN
22:21 79.7 °F 75.5 °F 29.91 in Calm     87% 0.00 in WeatherDisplay:10.37 W/m2 BKN
22:26 79.7 °F 75.5 °F 29.91 in Calm     87% 0.00 in WeatherDisplay:10.37 W/m2 BKN
22:31 79.7 °F 75.5 °F 29.91 in West 0.2 mph 2.7 mph 87% 0.00 in WeatherDisplay:10.37 W/m2 BKN
22:37 79.7 °F 75.5 °F 29.91 in Calm   2.7 mph 87% 0.00 in WeatherDisplay:10.37 W/m2 BKN
22:42 79.7 °F 75.5 °F 29.91 in Calm   2.7 mph 87% 0.00 in WeatherDisplay:10.37 W/m2 BKN
22:47 79.5 °F 75.3 °F 29.91 in Calm   2.7 mph 87% 0.00 in WeatherDisplay:10.37 W/m2 BKN
22:52 79.3 °F 75.1 °F 29.92 in Calm   2.7 mph 87% 0.00 in WeatherDisplay:10.37 W/m2 BKN
22:57 79.2 °F 75.0 °F 29.92 in Calm   2.7 mph 87% 0.00 in WeatherDisplay:10.37 W/m2 BKN
23:02 79.2 °F 75.0 °F 29.91 in Calm   2.7 mph 87% 0.00 in WeatherDisplay:10.37 W/m2 CLR
23:08 79.0 °F 74.8 °F 29.91 in Calm   2.7 mph 87% 0.00 in WeatherDisplay:10.37 W/m2 CLR
23:13 79.0 °F 75.1 °F 29.91 in Calm   2.7 mph 88% 0.00 in WeatherDisplay:10.37 W/m2 CLR
23:18 78.8 °F 74.9 °F 29.91 in Calm   2.7 mph 88% 0.00 in WeatherDisplay:10.37 W/m2 CLR
23:23 78.8 °F 74.9 °F 29.91 in Calm   2.7 mph 88% 0.00 in WeatherDisplay:10.37 W/m2 CLR
23:28 78.6 °F 75.1 °F 29.91 in Calm   2.7 mph 89% 0.00 in WeatherDisplay:10.37 W/m2 CLR
23:33 78.4 °F 75.2 °F 29.91 in Calm   2.7 mph 90% 0.00 in WeatherDisplay:10.37 W/m2 CLR
23:38 78.4 °F 75.2 °F 29.91 in Calm   2.7 mph 90% 0.00 in WeatherDisplay:10.37 W/m2 CLR
23:43 78.4 °F 75.2 °F 29.91 in Calm   2.7 mph 90% 0.00 in WeatherDisplay:10.37 W/m2 CLR
Daleville, Alabama USA
Compliments of Weather Underground - 4 mb